Terminal Aerodrome Forecast
Issued by NWS

Home | Current Version | Previous Version | Text Only | Print | Product List | Glossary On
Versions: 1 2 3 4 5 6 7 8 9 10 11 12 13 14 15 16
000
FTUS43 KICT 250500
TAFRSL
TAF
KRSL 250520Z 2506/2606 17019G27KT P6SM BKN200
     FM251500 21020G30KT P6SM SCT250
     FM252200 22013KT P6SM FEW080 SCT150
     FM260300 VRB05KT P6SM BKN120=

USA.gov is the U.S. government's official web portal to all federal, state and local government web resources and services.